Time;durP1;ratioP1;P1;durP2;ratioP2;P2;SDS_P1;SDS_P2;PMS_P1;PMS_P2;Temp;Humidity;BMP_temperature;BMP_pressure;BME280_temperature;BME280_humidity;BME280_pressure;Samples;Min_cycle;Max_cycle;Signal;HPM_P1;HPM_P2
2022/10/21 00:00:51;;;;;;;25.20;17.10;;;15.10;88.50;;;;;;4994545;28;20464;-78
2022/10/21 00:03:20;;;;;;;30.07;18.20;;;15.10;88.50;;;;;;4995821;28;21038;-79
2022/10/21 00:05:49;;;;;;;27.30;17.67;;;15.20;88.40;;;;;;4993132;28;21164;-78
2022/10/21 00:08:18;;;;;;;27.23;17.57;;;15.20;88.20;;;;;;4997659;28;20466;-77
2022/10/21 00:10:51;;;;;;;30.57;20.60;;;15.20;88.20;;;;;;4995966;28;20460;-76
2022/10/21 00:13:19;;;;;;;30.90;18.40;;;15.10;88.20;;;;;;4997680;28;20477;-79
2022/10/21 00:15:59;;;;;;;26.70;17.50;;;15.10;88.20;;;;;;4995285;28;20857;-77
2022/10/21 00:18:28;;;;;;;35.70;21.00;;;15.10;88.20;;;;;;4999867;28;20503;-77
2022/10/21 00:20:56;;;;;;;29.67;19.77;;;15.10;88.30;;;;;;4995126;28;20484;-78
2022/10/21 00:23:24;;;;;;;30.73;19.43;;;15.10;88.20;;;;;;4999604;28;20470;-77
2022/10/21 00:25:56;;;;;;;35.27;19.60;;;15.10;88.30;;;;;;4996835;28;20619;-77
2022/10/21 00:28:25;;;;;;;32.20;19.90;;;15.00;88.30;;;;;;4992325;28;21197;-78
2022/10/21 00:30:53;;;;;;;30.63;19.37;;;15.10;88.40;;;;;;4997625;28;20976;-77
2022/10/21 00:33:22;;;;;;;28.83;19.93;;;15.10;88.30;;;;;;4992337;28;21041;-78
2022/10/21 00:35:52;;;;;;;27.37;16.90;;;15.10;88.40;;;;;;5017627;28;20480;-78
2022/10/21 00:38:20;;;;;;;29.90;18.70;;;15.10;88.30;;;;;;5011125;28;20528;-78
2022/10/21 00:40:53;;;;;;;26.87;19.20;;;15.10;88.20;;;;;;5013599;28;20515;-77
2022/10/21 00:43:21;;;;;;;31.13;20.87;;;15.10;88.20;;;;;;5012194;28;20470;-76
2022/10/21 00:45:52;;;;;;;26.13;17.03;;;15.00;88.20;;;;;;4992398;28;20465;-77
2022/10/21 00:48:27;;;;;;;25.17;18.30;;;15.00;88.20;;;;;;5019558;28;20453;-79
2022/10/21 00:50:58;;;;;;;35.10;18.67;;;15.00;88.30;;;;;;5002451;28;20516;-78
2022/10/21 00:53:27;;;;;;;33.87;20.43;;;15.00;88.20;;;;;;4997412;28;20479;-78
2022/10/21 00:55:59;;;;;;;29.57;18.70;;;15.00;88.10;;;;;;5001181;28;20485;-77
2022/10/21 00:58:30;;;;;;;31.40;19.70;;;15.00;88.20;;;;;;4999548;28;20954;-79
2022/10/21 01:01:01;;;;;;;31.43;19.83;;;15.00;88.20;;;;;;5018812;28;20530;-77
2022/10/21 01:03:32;;;;;;;27.47;19.27;;;15.00;88.20;;;;;;5018399;28;21035;-77
2022/10/21 01:06:02;;;;;;;33.13;20.43;;;14.90;88.20;;;;;;4994937;28;20441;-78
2022/10/21 01:08:31;;;;;;;34.33;20.70;;;14.90;88.00;;;;;;5004140;28;20449;-78
2022/10/21 01:11:00;;;;;;;31.63;21.60;;;14.90;88.00;;;;;;5007082;28;20449;-78
2022/10/21 01:13:36;;;;;;;28.27;20.30;;;14.80;88.10;;;;;;4994924;28;20464;-79
2022/10/21 01:16:10;;;;;;;31.70;20.00;;;14.80;88.10;;;;;;4998799;28;21322;-77
2022/10/21 01:18:49;;;;;;;30.57;20.87;;;14.80;88.20;;;;;;5004654;28;20804;-78
2022/10/21 01:21:28;;;;;;;35.83;22.13;;;14.80;88.20;;;;;;5004131;28;20814;-76
2022/10/21 01:24:37;;;;;;;33.23;19.93;;;14.80;88.40;;;;;;5002806;28;20468;-77
2022/10/21 01:27:40;;;;;;;29.10;19.30;;;14.80;88.40;;;;;;4934707;29;20467;-77
2022/10/21 01:30:33;;;;;;;31.37;21.60;;;14.80;88.40;;;;;;4981658;28;20469;-76
2022/10/21 01:33:39;;;;;;;26.43;18.63;;;14.80;88.20;;;;;;4998588;28;21009;-76
2022/10/21 01:36:21;;;;;;;31.50;18.70;;;14.70;88.20;;;;;;5004832;28;21271;-79
2022/10/21 01:39:00;;;;;;;25.87;17.37;;;14.70;88.20;;;;;;5002355;28;20483;-79
2022/10/21 01:41:35;;;;;;;33.23;20.00;;;14.70;88.40;;;;;;5016721;28;20453;-78
2022/10/21 01:44:10;;;;;;;28.60;18.80;;;14.70;88.40;;;;;;5013881;28;20472;-77
2022/10/21 01:46:43;;;;;;;28.60;17.27;;;14.70;88.40;;;;;;4998382;28;20445;-77
2022/10/21 01:49:17;;;;;;;33.37;21.60;;;14.70;88.40;;;;;;5004399;28;20457;-76
2022/10/21 01:51:46;;;;;;;29.20;19.23;;;14.70;88.50;;;;;;5001566;28;20463;-78
2022/10/21 01:54:18;;;;;;;32.13;17.90;;;14.70;88.40;;;;;;5019667;28;20461;-79
2022/10/21 01:56:48;;;;;;;31.03;20.13;;;14.80;88.40;;;;;;5020488;28;20469;-77
2022/10/21 01:59:17;;;;;;;30.90;20.07;;;14.80;88.20;;;;;;4999637;28;20462;-78
2022/10/21 02:01:49;;;;;;;33.10;20.43;;;14.80;88.20;;;;;;5001178;28;20453;-76
2022/10/21 02:04:18;;;;;;;34.80;21.07;;;14.70;88.20;;;;;;4998519;28;20861;-76
2022/10/21 02:06:46;;;;;;;34.53;21.07;;;14.70;88.20;;;;;;4997981;28;20446;-79
2022/10/21 02:09:14;;;;;;;32.50;20.30;;;14.60;88.30;;;;;;4999509;28;20454;-78
2022/10/21 02:11:44;;;;;;;38.80;22.03;;;14.60;88.30;;;;;;5001016;28;20759;-77
2022/10/21 02:14:16;;;;;;;31.77;20.90;;;14.60;88.40;;;;;;5003108;28;20510;-77
2022/10/21 02:16:46;;;;;;;37.43;21.43;;;14.60;88.50;;;;;;5002426;28;20474;-78
2022/10/21 02:19:16;;;;;;;31.23;19.97;;;14.60;88.60;;;;;;5001238;28;20456;-76
2022/10/21 02:21:46;;;;;;;27.43;18.20;;;14.60;88.70;;;;;;5001327;28;20444;-78
2022/10/21 02:24:20;;;;;;;30.67;19.77;;;14.60;88.90;;;;;;4996657;28;20461;-76
2022/10/21 02:26:47;;;;;;;31.57;21.40;;;14.70;88.60;;;;;;5022133;28;20453;-77
2022/10/21 02:29:23;;;;;;;32.90;18.93;;;14.70;88.40;;;;;;4996693;28;20473;-77
2022/10/21 02:32:06;;;;;;;37.07;22.60;;;14.60;88.40;;;;;;5014054;28;20466;-76
2022/10/21 02:34:44;;;;;;;31.47;19.50;;;14.60;88.40;;;;;;4999145;28;20453;-78
2022/10/21 02:37:23;;;;;;;30.40;18.93;;;14.60;88.50;;;;;;4997278;28;20492;-77
2022/10/21 02:39:58;;;;;;;27.63;18.40;;;14.60;88.50;;;;;;5002433;28;20469;-77
2022/10/21 02:42:31;;;;;;;29.60;19.37;;;14.60;88.60;;;;;;4996942;28;21013;-76
2022/10/21 02:45:01;;;;;;;28.20;19.67;;;14.60;88.60;;;;;;5006159;28;20518;-78
2022/10/21 02:47:30;;;;;;;30.23;19.60;;;14.60;88.50;;;;;;5001673;28;20456;-79
2022/10/21 02:49:58;;;;;;;27.30;18.90;;;14.70;88.40;;;;;;5000975;28;20454;-77
2022/10/21 02:52:26;;;;;;;28.87;18.77;;;14.70;88.40;;;;;;5003096;28;20489;-77
2022/10/21 02:54:54;;;;;;;28.20;18.83;;;14.70;88.30;;;;;;5003873;28;20874;-77
2022/10/21 02:57:22;;;;;;;29.73;18.27;;;14.70;88.20;;;;;;4998240;28;21277;-79
2022/10/21 02:59:50;;;;;;;31.00;17.93;;;14.60;88.20;;;;;;5000614;28;20500;-78
2022/10/21 03:02:18;;;;;;;32.07;18.30;;;14.60;88.20;;;;;;5003793;28;20488;-77
2022/10/21 03:04:47;;;;;;;26.77;17.17;;;14.60;88.20;;;;;;5016486;28;20473;-77
2022/10/21 03:07:15;;;;;;;30.53;17.57;;;14.60;88.10;;;;;;5011634;28;20828;-78
2022/10/21 03:09:43;;;;;;;24.83;16.03;;;14.60;88.00;;;;;;5006166;28;20927;-77
2022/10/21 03:12:11;;;;;;;26.00;17.93;;;14.50;88.00;;;;;;5007615;28;20548;-79
2022/10/21 03:14:39;;;;;;;24.80;17.30;;;14.50;88.00;;;;;;5023860;28;20551;-77
2022/10/21 03:17:07;;;;;;;28.17;17.77;;;14.50;88.00;;;;;;5007935;28;20482;-77
2022/10/21 03:19:42;;;;;;;25.50;16.67;;;14.50;88.00;;;;;;5000962;28;20453;-77
2022/10/21 03:22:11;;;;;;;23.93;15.83;;;14.50;87.90;;;;;;5001314;28;20546;-76
2022/10/21 03:24:39;;;;;;;28.10;16.23;;;14.50;87.60;;;;;;4992772;28;20465;-78
2022/10/21 03:27:07;;;;;;;27.43;18.07;;;14.40;87.60;;;;;;4998228;28;20914;-78
2022/10/21 03:29:35;;;;;;;24.70;16.60;;;14.30;87.60;;;;;;5005928;28;21118;-76
2022/10/21 03:32:03;;;;;;;28.73;17.90;;;14.20;87.80;;;;;;4998153;28;20473;-78
2022/10/21 03:34:31;;;;;;;26.00;17.50;;;14.20;87.90;;;;;;4996869;28;20484;-78
2022/10/21 03:36:59;;;;;;;26.03;17.77;;;14.20;87.90;;;;;;4995972;28;20509;-79
2022/10/21 03:39:28;;;;;;;28.73;18.03;;;14.20;87.90;;;;;;4996593;28;20473;-78
2022/10/21 03:41:56;;;;;;;27.80;18.20;;;14.20;87.80;;;;;;5011376;28;20974;-77
2022/10/21 03:44:24;;;;;;;26.27;17.40;;;14.20;87.80;;;;;;4998983;28;20462;-78
2022/10/21 03:46:52;;;;;;;29.97;18.60;;;14.20;87.90;;;;;;4998297;28;20518;-78
2022/10/21 03:49:20;;;;;;;27.07;18.50;;;14.20;87.90;;;;;;4997575;28;20954;-78
2022/10/21 03:51:49;;;;;;;25.13;17.67;;;14.20;87.90;;;;;;5010998;28;20462;-78
2022/10/21 03:54:17;;;;;;;31.37;17.30;;;14.20;87.90;;;;;;5000072;28;20994;-78
2022/10/21 03:56:47;;;;;;;29.27;18.77;;;14.20;87.80;;;;;;4996142;28;20455;-78
2022/10/21 03:59:15;;;;;;;26.80;17.27;;;14.20;87.80;;;;;;4989213;28;20554;-78
2022/10/21 04:01:43;;;;;;;26.40;17.60;;;14.20;87.80;;;;;;5004887;28;20464;-77
2022/10/21 04:04:11;;;;;;;29.60;18.47;;;14.20;87.80;;;;;;5004769;28;20452;-78
2022/10/21 04:06:39;;;;;;;25.30;16.33;;;14.20;87.70;;;;;;5001270;28;20449;-78
2022/10/21 04:09:07;;;;;;;20.33;14.67;;;14.20;87.60;;;;;;5001113;28;20523;-77
2022/10/21 04:11:35;;;;;;;21.53;14.50;;;14.20;87.50;;;;;;4998415;28;20483;-77
2022/10/21 04:14:04;;;;;;;19.10;14.97;;;14.20;87.40;;;;;;5001326;28;20481;-77
2022/10/21 04:16:33;;;;;;;20.07;14.37;;;14.20;87.40;;;;;;4998882;28;20464;-77
2022/10/21 04:19:01;;;;;;;21.47;13.80;;;14.10;87.40;;;;;;5002478;28;20473;-77
2022/10/21 04:21:29;;;;;;;21.73;14.00;;;14.10;87.30;;;;;;5014670;28;20465;-77
2022/10/21 04:23:57;;;;;;;22.30;15.50;;;14.10;87.30;;;;;;5004741;28;20480;-76
2022/10/21 04:26:25;;;;;;;22.67;15.30;;;14.10;87.20;;;;;;4998490;28;20483;-77
2022/10/21 04:28:53;;;;;;;20.23;13.90;;;14.10;87.30;;;;;;4999234;28;20867;-78
2022/10/21 04:31:22;;;;;;;21.50;14.07;;;14.10;87.20;;;;;;5001060;28;20447;-78
2022/10/21 04:33:55;;;;;;;25.33;14.97;;;14.10;87.20;;;;;;5000738;28;20476;-76
2022/10/21 04:36:23;;;;;;;20.93;15.00;;;14.00;87.00;;;;;;4995163;28;20454;-78
2022/10/21 04:38:51;;;;;;;24.23;14.43;;;14.00;86.90;;;;;;5013534;28;20478;-76
2022/10/21 04:41:19;;;;;;;20.40;14.77;;;13.90;86.90;;;;;;4998000;28;20444;-78
2022/10/21 04:43:47;;;;;;;21.60;15.97;;;13.90;87.00;;;;;;4999307;28;20481;-78
2022/10/21 04:46:15;;;;;;;21.40;14.43;;;14.00;87.00;;;;;;5002832;28;20445;-79
2022/10/21 04:48:45;;;;;;;20.57;14.17;;;13.90;86.90;;;;;;5023488;28;20458;-78
2022/10/21 04:51:13;;;;;;;23.23;15.10;;;13.90;86.90;;;;;;5004153;28;20481;-77
2022/10/21 04:53:41;;;;;;;19.10;13.33;;;13.90;86.80;;;;;;5001741;28;20475;-78
2022/10/21 04:56:09;;;;;;;20.73;14.50;;;13.90;86.70;;;;;;5005201;28;20570;-79
2022/10/21 04:58:37;;;;;;;20.80;15.03;;;13.90;86.80;;;;;;5005596;28;20532;-76
2022/10/21 05:01:05;;;;;;;21.13;14.30;;;13.90;86.70;;;;;;5003509;28;20512;-78
2022/10/21 05:03:33;;;;;;;20.90;14.47;;;13.90;86.80;;;;;;5002021;28;20477;-79
2022/10/21 05:06:02;;;;;;;21.50;14.20;;;13.90;86.80;;;;;;5009432;28;20456;-77
2022/10/21 05:08:30;;;;;;;24.50;16.10;;;13.90;86.70;;;;;;4998193;28;20518;-78
2022/10/21 05:10:59;;;;;;;24.60;16.50;;;13.90;86.80;;;;;;4996961;28;20445;-78
2022/10/21 05:13:27;;;;;;;21.63;15.73;;;13.90;86.70;;;;;;5000968;28;20554;-77
2022/10/21 05:15:59;;;;;;;18.97;13.90;;;13.90;86.60;;;;;;5004418;28;20447;-77
2022/10/21 05:18:27;;;;;;;24.73;14.43;;;13.80;86.60;;;;;;5018259;28;20481;-77
2022/10/21 05:20:56;;;;;;;26.20;16.80;;;13.80;86.60;;;;;;5003991;28;20487;-77
2022/10/21 05:23:26;;;;;;;23.10;15.40;;;13.80;86.60;;;;;;5017823;28;20551;-77
2022/10/21 05:25:54;;;;;;;27.10;17.43;;;13.80;86.60;;;;;;5002294;28;20527;-77
2022/10/21 05:28:22;;;;;;;25.20;15.73;;;13.80;86.60;;;;;;5000044;28;20518;-78
2022/10/21 05:30:50;;;;;;;23.20;17.70;;;13.80;86.60;;;;;;5003758;28;20457;-77
2022/10/21 05:33:18;;;;;;;30.80;18.30;;;13.80;86.50;;;;;;5000179;28;20921;-76
2022/10/21 05:35:55;;;;;;;36.97;19.90;;;13.80;86.50;;;;;;5001216;28;20778;-78
2022/10/21 05:38:24;;;;;;;28.07;20.33;;;13.80;86.40;;;;;;5002543;28;20890;-77
2022/10/21 05:40:52;;;;;;;34.80;20.50;;;13.80;86.40;;;;;;4998622;28;20469;-77
2022/10/21 05:43:20;;;;;;;26.70;17.60;;;13.80;86.40;;;;;;5001295;28;21050;-76
2022/10/21 05:45:48;;;;;;;21.93;15.00;;;13.70;86.50;;;;;;4992426;28;20538;-77
2022/10/21 05:48:17;;;;;;;22.20;15.40;;;13.70;86.40;;;;;;5022795;28;20448;-76
2022/10/21 05:50:45;;;;;;;21.20;15.13;;;13.70;86.40;;;;;;5004785;28;20981;-77
2022/10/21 05:53:14;;;;;;;26.70;16.90;;;13.70;86.50;;;;;;5005556;28;20523;-79
2022/10/21 05:55:43;;;;;;;23.97;17.67;;;13.70;86.60;;;;;;4993222;28;20481;-77
2022/10/21 05:58:11;;;;;;;28.00;19.13;;;13.70;86.60;;;;;;5001839;28;20494;-79
2022/10/21 06:00:40;;;;;;;30.47;19.40;;;13.70;86.50;;;;;;5003788;28;20966;-79
2022/10/21 06:03:08;;;;;;;28.60;18.40;;;13.60;86.40;;;;;;4995289;28;20476;-79
2022/10/21 06:05:36;;;;;;;29.90;17.03;;;13.60;86.60;;;;;;4995745;28;20472;-78
2022/10/21 06:08:04;;;;;;;27.63;17.93;;;13.60;86.50;;;;;;5002653;28;20457;-79
2022/10/21 06:10:32;;;;;;;32.00;20.40;;;13.60;86.60;;;;;;5017922;28;20453;-79
2022/10/21 06:13:02;;;;;;;32.80;21.53;;;13.50;86.70;;;;;;4999246;28;20861;-80
2022/10/21 06:15:29;;;;;;;33.63;21.73;;;13.60;86.70;;;;;;4999523;28;20958;-78
2022/10/21 06:17:58;;;;;;;29.83;19.73;;;13.60;86.80;;;;;;5000310;28;20465;-80
2022/10/21 06:20:25;;;;;;;24.97;17.60;;;13.60;86.80;;;;;;4999543;28;20465;-79
2022/10/21 06:22:53;;;;;;;31.10;20.37;;;13.60;87.00;;;;;;5013706;28;20478;-79
2022/10/21 06:25:22;;;;;;;25.30;16.63;;;13.70;87.00;;;;;;5022368;28;20469;-78
2022/10/21 06:27:51;;;;;;;28.13;19.00;;;13.70;86.90;;;;;;5002635;28;21265;-77
2022/10/21 06:30:21;;;;;;;24.50;17.40;;;13.70;86.80;;;;;;5004016;28;20449;-78
2022/10/21 06:32:50;;;;;;;23.63;17.80;;;13.70;87.00;;;;;;5016715;28;21021;-78
2022/10/21 06:35:18;;;;;;;22.70;16.87;;;13.70;87.10;;;;;;5004356;28;20527;-79
2022/10/21 06:37:45;;;;;;;23.40;16.73;;;13.70;87.20;;;;;;4992205;28;20461;-80
2022/10/21 06:40:13;;;;;;;30.93;18.70;;;13.80;87.10;;;;;;4995476;28;20480;-79
2022/10/21 06:42:41;;;;;;;25.20;17.90;;;13.80;87.10;;;;;;4997934;28;20481;-77
2022/10/21 06:45:10;;;;;;;30.80;17.37;;;13.80;87.00;;;;;;5016605;28;20461;-77
2022/10/21 06:47:40;;;;;;;26.47;17.07;;;13.80;87.00;;;;;;5003592;28;20458;-78
2022/10/21 06:50:09;;;;;;;28.67;19.00;;;13.90;87.10;;;;;;5019325;28;20472;-77
2022/10/21 06:52:36;;;;;;;36.30;24.37;;;13.90;87.10;;;;;;5020426;28;21031;-77
2022/10/21 06:55:06;;;;;;;60.60;39.90;;;13.90;87.10;;;;;;5015342;28;20461;-78
2022/10/21 06:57:34;;;;;;;76.00;46.00;;;14.00;87.10;;;;;;5012082;28;20874;-79
2022/10/21 07:00:04;;;;;;;69.17;42.00;;;14.00;87.10;;;;;;5018506;28;20477;-77
2022/10/21 07:02:32;;;;;;;37.80;26.20;;;14.00;87.00;;;;;;5003384;28;20985;-78
2022/10/21 07:05:02;;;;;;;35.40;23.40;;;14.10;87.00;;;;;;5004509;28;20458;-78
2022/10/21 07:07:30;;;;;;;26.27;18.43;;;14.10;87.00;;;;;;5004097;28;20480;-80
2022/10/21 07:09:58;;;;;;;23.30;15.73;;;14.10;87.00;;;;;;4999736;28;20455;-79
2022/10/21 07:12:27;;;;;;;24.87;16.53;;;14.10;87.00;;;;;;5000813;28;20546;-79
2022/10/21 07:14:55;;;;;;;25.87;16.80;;;14.10;87.00;;;;;;5015018;28;20519;-79
2022/10/21 07:17:23;;;;;;;26.60;16.77;;;14.10;87.00;;;;;;5002848;28;20457;-80
2022/10/21 07:19:51;;;;;;;22.20;16.07;;;14.10;87.00;;;;;;5005842;28;20504;-79
2022/10/21 07:22:20;;;;;;;23.33;15.23;;;14.20;87.00;;;;;;4999932;28;20680;-80
2022/10/21 07:24:49;;;;;;;23.40;16.13;;;14.20;87.00;;;;;;5013652;28;20461;-79
2022/10/21 07:27:17;;;;;;;26.53;17.00;;;14.20;87.00;;;;;;5002235;28;20446;-78
2022/10/21 07:29:45;;;;;;;23.93;16.23;;;14.20;86.90;;;;;;5002938;28;20472;-79
2022/10/21 07:32:13;;;;;;;24.67;17.00;;;14.20;87.00;;;;;;4996248;28;20476;-78
2022/10/21 07:34:41;;;;;;;23.20;16.17;;;14.20;86.90;;;;;;4997249;28;20840;-77
2022/10/21 07:37:09;;;;;;;25.00;17.40;;;14.20;86.90;;;;;;5002667;28;20445;-79
2022/10/21 07:39:38;;;;;;;26.27;16.00;;;14.20;86.90;;;;;;5000487;28;20480;-79
2022/10/21 07:42:08;;;;;;;25.40;15.37;;;14.20;86.90;;;;;;5018125;28;21098;-79
2022/10/21 07:44:35;;;;;;;26.27;17.00;;;14.20;87.00;;;;;;5000707;28;20468;-79
2022/10/21 07:47:04;;;;;;;28.10;17.67;;;14.20;87.00;;;;;;5001090;28;20457;-79
2022/10/21 07:49:31;;;;;;;54.20;28.37;;;14.20;87.00;;;;;;4997640;28;20503;-77
2022/10/21 07:51:59;;;;;;;61.50;34.07;;;14.20;87.00;;;;;;4997985;28;21331;-79
2022/10/21 07:54:28;;;;;;;51.70;27.20;;;14.20;87.00;;;;;;4994142;28;20863;-79
2022/10/21 07:56:57;;;;;;;40.67;23.30;;;14.30;87.00;;;;;;5013839;28;20461;-77
2022/10/21 07:59:25;;;;;;;38.87;22.90;;;14.30;87.10;;;;;;5011328;28;20986;-79
2022/10/21 08:01:53;;;;;;;33.63;21.50;;;14.30;87.00;;;;;;5016253;28;21066;-78
2022/10/21 08:04:28;;;;;;;34.53;22.50;;;14.30;87.10;;;;;;4999339;28;20697;-78
2022/10/21 08:06:56;;;;;;;28.50;19.30;;;14.30;87.10;;;;;;4999102;28;21238;-79
2022/10/21 08:09:25;;;;;;;28.73;21.27;;;14.30;87.10;;;;;;4996725;28;20519;-80
2022/10/21 08:11:53;;;;;;;27.40;20.10;;;14.30;87.10;;;;;;5020250;28;21390;-78
2022/10/21 08:14:23;;;;;;;27.00;19.37;;;14.30;87.10;;;;;;5003396;28;20522;-78
2022/10/21 08:16:52;;;;;;;24.30;18.60;;;14.30;87.20;;;;;;4997439;28;20465;-78
2022/10/21 08:19:28;;;;;;;23.77;17.40;;;14.30;87.10;;;;;;5002737;28;20834;-78
2022/10/21 08:21:57;;;;;;;26.97;17.43;;;14.30;87.20;;;;;;4996951;28;20467;-78
2022/10/21 08:24:25;;;;;;;30.37;22.83;;;14.40;87.30;;;;;;5001200;28;20949;-79
2022/10/21 08:26:54;;;;;;;31.23;22.43;;;14.40;87.20;;;;;;5003998;28;20453;-79
2022/10/21 08:29:23;;;;;;;28.97;20.90;;;14.40;87.20;;;;;;5000748;28;20461;-78
2022/10/21 08:31:51;;;;;;;29.30;19.90;;;14.30;87.20;;;;;;4999254;28;20470;-77
2022/10/21 08:34:19;;;;;;;46.50;29.57;;;14.30;87.30;;;;;;5012314;28;20497;-80
2022/10/21 08:36:47;;;;;;;36.80;24.60;;;14.40;87.40;;;;;;5002465;28;20451;-79
2022/10/21 08:39:15;;;;;;;43.97;27.70;;;14.40;87.40;;;;;;4997492;28;20472;-79
2022/10/21 08:42:04;;;;;;;49.50;29.87;;;14.40;87.30;;;;;;4999559;28;20507;-79
2022/10/21 08:44:49;;;;;;;43.50;26.47;;;14.50;87.30;;;;;;5001665;28;21138;-79
2022/10/21 08:47:24;;;;;;;37.47;21.93;;;14.50;87.30;;;;;;4996182;28;20458;-79
2022/10/21 08:50:00;;;;;;;31.57;20.80;;;14.50;87.30;;;;;;5000334;28;20444;-79
2022/10/21 08:52:38;;;;;;;29.50;18.87;;;14.50;87.40;;;;;;4994983;28;20481;-78
2022/10/21 08:55:13;;;;;;;25.20;17.07;;;14.50;87.40;;;;;;5013978;28;20488;-79
2022/10/21 08:57:41;;;;;;;23.83;16.87;;;14.60;87.50;;;;;;5000080;28;20455;-79
2022/10/21 09:00:18;;;;;;;29.17;17.23;;;14.60;87.40;;;;;;5014959;28;20477;-80
2022/10/21 09:03:01;;;;;;;27.80;17.23;;;14.60;87.50;;;;;;5000568;28;20472;-80
2022/10/21 09:06:04;;;;;;;26.90;17.80;;;14.60;87.50;;;;;;5016758;28;20548;-79
2022/10/21 09:08:38;;;;;;;24.13;15.77;;;14.70;87.50;;;;;;5013462;28;20473;-79
2022/10/21 09:11:18;;;;;;;24.60;15.47;;;14.70;87.50;;;;;;5010511;28;20465;-79
2022/10/21 09:14:10;;;;;;;25.57;16.40;;;14.70;87.50;;;;;;5012970;28;20531;-78
2022/10/21 09:16:48;;;;;;;24.30;15.10;;;14.70;87.50;;;;;;5000928;28;20457;-79
2022/10/21 09:19:31;;;;;;;23.00;13.90;;;14.70;87.50;;;;;;4998806;28;20449;-78
2022/10/21 09:22:08;;;;;;;22.73;15.40;;;14.70;87.50;;;;;;5014963;28;20484;-79
2022/10/21 09:24:59;;;;;;;24.17;14.73;;;14.80;87.50;;;;;;5013479;28;20473;-79
2022/10/21 09:27:27;;;;;;;22.63;15.03;;;14.80;87.50;;;;;;5001016;28;20457;-79
2022/10/21 09:30:19;;;;;;;20.93;13.40;;;14.80;87.50;;;;;;5009076;28;20462;-78
2022/10/21 09:32:51;;;;;;;24.00;14.90;;;14.80;87.50;;;;;;5010897;28;20887;-78
2022/10/21 09:35:25;;;;;;;22.80;15.20;;;14.80;87.50;;;;;;5025505;28;20454;-79
2022/10/21 09:37:56;;;;;;;21.73;14.27;;;14.80;87.50;;;;;;5028800;28;20514;-80
2022/10/21 09:40:27;;;;;;;25.00;14.97;;;14.80;87.60;;;;;;5006458;28;20834;-79
2022/10/21 09:42:57;;;;;;;23.50;15.00;;;14.80;87.60;;;;;;5024018;28;20481;-79
2022/10/21 09:45:31;;;;;;;30.40;18.70;;;14.80;87.60;;;;;;5005057;28;20463;-78
2022/10/21 09:48:04;;;;;;;33.60;20.70;;;14.80;87.60;;;;;;5021041;28;20466;-79
2022/10/21 09:50:34;;;;;;;30.53;21.10;;;14.80;87.60;;;;;;5019070;28;20445;-78
2022/10/21 09:53:07;;;;;;;39.63;26.80;;;14.90;87.60;;;;;;4997647;28;20485;-78
2022/10/21 09:55:38;;;;;;;32.97;22.03;;;14.90;87.70;;;;;;4996284;28;20519;-77
2022/10/21 09:58:06;;;;;;;28.57;20.63;;;14.90;87.60;;;;;;5004306;28;20472;-79
2022/10/21 10:00:43;;;;;;;26.23;18.10;;;14.90;87.80;;;;;;5020121;28;20516;-78
2022/10/21 10:03:13;;;;;;;28.60;18.67;;;14.90;87.80;;;;;;4997659;28;20480;-77
2022/10/21 10:05:46;;;;;;;26.00;16.97;;;14.90;87.80;;;;;;4999938;28;20457;-80
2022/10/21 10:08:35;;;;;;;23.57;15.60;;;15.00;87.80;;;;;;4998951;28;20473;-77
2022/10/21 10:11:11;;;;;;;27.07;15.23;;;15.00;87.80;;;;;;5014417;28;20479;-81
2022/10/21 10:13:41;;;;;;;22.63;14.70;;;15.00;87.80;;;;;;5018350;28;20483;-78
2022/10/21 10:16:21;;;;;;;20.70;14.63;;;15.00;87.80;;;;;;5012772;28;20986;-79
2022/10/21 10:18:53;;;;;;;21.67;15.57;;;15.00;87.80;;;;;;4999288;28;20553;-78
2022/10/21 10:21:22;;;;;;;23.27;14.80;;;15.00;87.80;;;;;;5000484;28;21005;-78
2022/10/21 10:23:52;;;;;;;24.97;15.97;;;15.00;87.90;;;;;;4999157;28;20468;-79
2022/10/21 10:26:26;;;;;;;21.80;15.30;;;15.00;87.90;;;;;;5017269;28;20462;-78
2022/10/21 10:28:58;;;;;;;25.83;14.80;;;15.00;87.90;;;;;;4997608;28;20449;-78
2022/10/21 10:31:30;;;;;;;27.13;16.60;;;15.10;88.00;;;;;;5004319;28;20461;-77
2022/10/21 10:34:03;;;;;;;23.20;16.40;;;15.10;88.10;;;;;;5014667;28;20841;-78
2022/10/21 10:36:34;;;;;;;31.73;20.30;;;15.10;88.20;;;;;;5016233;28;20993;-77
2022/10/21 10:39:04;;;;;;;48.07;34.53;;;15.10;88.10;;;;;;5016420;28;20474;-78
2022/10/21 10:41:37;;;;;;;35.80;25.10;;;15.10;88.20;;;;;;5018618;28;21183;-77
2022/10/21 10:44:12;;;;;;;20.87;14.10;;;15.20;88.30;;;;;;5018649;28;20480;-79
2022/10/21 10:46:40;;;;;;;19.83;12.40;;;15.20;88.50;;;;;;4997079;28;20464;-77
2022/10/21 10:49:21;;;;;;;11.10;6.03;;;15.30;88.70;;;;;;5000805;28;20445;-78
2022/10/21 10:52:04;;;;;;;9.43;4.97;;;15.40;88.90;;;;;;4996836;28;20977;-79
2022/10/21 10:54:32;;;;;;;9.30;4.73;;;15.40;89.00;;;;;;4999332;28;20452;-78
2022/10/21 10:57:03;;;;;;;8.90;5.10;;;15.50;89.10;;;;;;5016948;28;20479;-80
2022/10/21 10:59:36;;;;;;;7.27;3.97;;;15.60;89.20;;;;;;4992726;28;20483;-78
2022/10/21 11:02:25;;;;;;;9.43;4.07;;;15.70;89.20;;;;;;4995493;28;20484;-78
2022/10/21 11:05:20;;;;;;;7.60;3.40;;;15.70;89.30;;;;;;4995441;28;20452;-78
2022/10/21 11:07:50;;;;;;;9.53;3.30;;;15.80;89.40;;;;;;4997991;28;20466;-77
2022/10/21 11:10:35;;;;;;;7.37;3.30;;;15.80;89.40;;;;;;5003996;28;20453;-76
2022/10/21 11:13:05;;;;;;;10.73;4.47;;;15.90;89.40;;;;;;4997500;28;20469;-79
2022/10/21 11:15:55;;;;;;;6.27;3.50;;;15.90;89.50;;;;;;5016554;28;20841;-77
2022/10/21 11:18:30;;;;;;;8.17;4.17;;;16.00;89.60;;;;;;5019724;28;20474;-77
2022/10/21 11:21:08;;;;;;;7.07;3.30;;;16.00;89.60;;;;;;4999123;28;21151;-77
2022/10/21 11:23:56;;;;;;;7.50;3.80;;;16.00;89.60;;;;;;5000243;28;20481;-77
2022/10/21 11:26:33;;;;;;;8.30;3.00;;;16.10;89.50;;;;;;5000126;28;20511;-77
2022/10/21 11:29:10;;;;;;;7.27;3.60;;;16.10;89.50;;;;;;5011341;28;20507;-78
2022/10/21 11:31:49;;;;;;;7.07;3.10;;;16.20;89.60;;;;;;4999612;28;20472;-79
2022/10/21 11:34:48;;;;;;;6.13;2.60;;;16.20;89.70;;;;;;5014541;28;20464;-78
2022/10/21 11:37:25;;;;;;;6.97;2.80;;;16.20;89.80;;;;;;4999623;28;20873;-79
2022/10/21 11:39:56;;;;;;;7.47;2.93;;;16.30;89.70;;;;;;5001607;28;20464;-79
2022/10/21 11:42:31;;;;;;;9.00;4.00;;;16.30;89.70;;;;;;4993267;28;20597;-79
2022/10/21 11:45:09;;;;;;;9.13;2.67;;;16.30;89.70;;;;;;5001516;28;20573;-78
2022/10/21 11:47:43;;;;;;;5.93;2.83;;;16.30;89.70;;;;;;5014754;28;20460;-79
2022/10/21 11:50:18;;;;;;;5.57;2.40;;;16.30;89.80;;;;;;5014031;28;20458;-77
2022/10/21 11:53:11;;;;;;;6.33;2.37;;;16.40;89.80;;;;;;5000260;28;20472;-78
2022/10/21 11:55:46;;;;;;;6.23;2.20;;;16.40;89.80;;;;;;5015789;28;20484;-80
2022/10/21 11:58:29;;;;;;;5.90;2.37;;;16.40;89.80;;;;;;5015852;28;20508;-77
2022/10/21 12:01:14;;;;;;;5.83;2.10;;;16.40;89.90;;;;;;4996020;28;20464;-80
2022/10/21 12:04:08;;;;;;;6.30;2.10;;;16.50;89.90;;;;;;4995854;28;20539;-78
2022/10/21 12:06:44;;;;;;;4.90;2.03;;;16.50;89.90;;;;;;4998511;28;20468;-77
2022/10/21 12:09:19;;;;;;;6.00;2.30;;;16.50;90.00;;;;;;4998860;28;20460;-78
2022/10/21 12:11:50;;;;;;;4.87;1.70;;;16.50;90.00;;;;;;4993364;28;20889;-78
2022/10/21 12:14:26;;;;;;;4.67;1.60;;;16.50;90.00;;;;;;4995926;28;20958;-79
2022/10/21 12:17:01;;;;;;;3.57;1.43;;;16.50;90.20;;;;;;4998858;28;20448;-79
2022/10/21 12:19:29;;;;;;;4.60;1.57;;;16.60;90.10;;;;;;5014013;28;21051;-76
2022/10/21 12:21:58;;;;;;;5.07;1.90;;;16.60;90.10;;;;;;5013142;28;20527;-77
2022/10/21 12:24:43;;;;;;;3.60;1.47;;;16.60;90.10;;;;;;5013553;28;20461;-77
2022/10/21 12:27:18;;;;;;;4.80;1.63;;;16.60;90.30;;;;;;5017767;28;21035;-78
2022/10/21 12:29:58;;;;;;;4.77;1.47;;;16.70;90.40;;;;;;5017673;28;20461;-79
2022/10/21 12:32:32;;;;;;;3.50;1.23;;;16.70;90.50;;;;;;4996428;28;20528;-78
2022/10/21 12:35:01;;;;;;;4.30;1.53;;;16.80;90.30;;;;;;4996453;28;20465;-79
2022/10/21 12:37:57;;;;;;;5.60;1.77;;;16.80;90.50;;;;;;4996831;28;20457;-79
2022/10/21 12:40:38;;;;;;;4.13;1.60;;;16.90;90.50;;;;;;4993593;28;20477;-78
2022/10/21 12:43:16;;;;;;;5.20;1.70;;;16.90;90.50;;;;;;5014149;28;20496;-78
2022/10/21 12:45:44;;;;;;;7.23;1.50;;;17.00;90.50;;;;;;5001334;28;20458;-78
2022/10/21 12:48:31;;;;;;;8.90;1.77;;;17.00;90.40;;;;;;5000731;28;20861;-79
2022/10/21 12:51:01;;;;;;;4.37;1.37;;;17.10;90.30;;;;;;5017476;28;20453;-78
2022/10/21 12:53:36;;;;;;;4.93;2.00;;;17.10;90.30;;;;;;5013016;28;21116;-78
2022/10/21 12:56:08;;;;;;;4.97;1.87;;;17.10;90.20;;;;;;4996217;28;20852;-79